createdAt,value
2019-04-16T00:02:50.836Z,8.00
2019-04-16T00:07:57.720Z,15.17
2019-04-16T00:13:07.796Z,7.93
2019-04-16T00:18:12.333Z,10.00
2019-04-16T00:23:25.196Z,8.33
2019-04-16T00:28:30.678Z,9.17
2019-04-16T00:33:39.383Z,8.57
2019-04-16T00:38:43.209Z,6.00
2019-04-16T00:43:47.909Z,8.77
2019-04-16T00:48:52.681Z,9.10
2019-04-16T00:53:58.854Z,7.90
2019-04-16T00:59:03.540Z,8.07
2019-04-16T01:04:09.120Z,9.37
2019-04-16T01:09:13.925Z,7.70
2019-04-16T01:14:19.072Z,7.13
2019-04-16T01:19:23.982Z,6.97
2019-04-16T01:24:29.604Z,7.20
2019-04-16T01:29:34.649Z,8.97
2019-04-16T01:35:06.101Z,9.47
2019-04-16T01:40:12.778Z,8.67
2019-04-16T01:45:18.826Z,10.20
2019-04-16T01:50:23.425Z,9.80
2019-04-16T01:55:29.617Z,8.93
2019-04-16T02:00:36.494Z,8.00
2019-04-16T02:05:40.780Z,8.23
2019-04-16T02:10:46.406Z,7.73
2019-04-16T02:15:53.413Z,8.43
2019-04-16T02:20:59.997Z,9.43
2019-04-16T02:26:07.798Z,6.83
2019-04-16T02:31:15.425Z,12.23
2019-04-16T02:36:19.556Z,8.43
2019-04-16T02:41:24.733Z,9.40
2019-04-16T02:46:32.338Z,9.97
2019-04-16T02:51:46.889Z,6.30
2019-04-16T02:57:06.606Z,7.47
2019-04-16T03:02:29.737Z,7.70
2019-04-16T03:07:35.197Z,8.00
2019-04-16T03:12:39.762Z,9.53
2019-04-16T03:17:45.948Z,8.07
2019-04-16T03:22:50.461Z,9.83
2019-04-16T03:27:58.194Z,5.93
2019-04-16T03:33:10.409Z,8.27
2019-04-16T03:38:09.816Z,8.27
2019-04-16T03:43:14.439Z,9.30
2019-04-16T03:48:20.627Z,7.77
2019-04-16T03:53:26.715Z,8.17
2019-04-16T03:58:31.722Z,8.37
2019-04-16T04:03:36.270Z,9.23
2019-04-16T04:08:41.154Z,9.60
2019-04-16T04:13:49.733Z,9.13
2019-04-16T04:18:53.546Z,6.40
2019-04-16T04:24:00.632Z,6.87
2019-04-16T04:29:06.311Z,8.33
2019-04-16T04:34:15.647Z,7.87
2019-04-16T04:39:18.081Z,6.80
2019-04-16T04:44:22.870Z,8.20
2019-04-16T04:49:30.511Z,9.63
2019-04-16T04:54:34.791Z,9.13
2019-04-16T04:59:39.908Z,7.53
2019-04-16T05:04:55.375Z,7.90
2019-04-16T05:09:59.928Z,9.60
2019-04-16T05:15:05.143Z,8.83
2019-04-16T05:20:14.741Z,9.40
2019-04-16T05:25:16.222Z,10.73
2019-04-16T05:30:24.981Z,9.00
2019-04-16T05:35:32.529Z,9.50
2019-04-16T05:40:37.070Z,10.10
2019-04-16T05:45:41.674Z,10.13
2019-04-16T05:50:46.565Z,6.97
2019-04-16T05:55:57.510Z,7.33
2019-04-16T06:01:06.668Z,8.87
2019-04-16T06:06:11.487Z,6.57
2019-04-16T06:11:27.695Z,7.20
2019-04-16T06:16:35.161Z,7.20
2019-04-16T06:21:57.917Z,9.80
2019-04-16T06:27:21.389Z,8.90
2019-04-16T06:32:35.295Z,8.07
2019-04-16T06:37:50.648Z,9.87
2019-04-16T06:43:03.149Z,9.93
2019-04-16T06:48:13.128Z,9.13
2019-04-16T06:53:38.574Z,11.23
2019-04-16T06:58:57.495Z,9.30
2019-04-16T07:04:06.740Z,11.10
2019-04-16T07:09:24.239Z,11.37
2019-04-16T07:14:26.907Z,12.00
2019-04-16T07:19:32.009Z,14.07
2019-04-16T07:24:38.165Z,11.93
2019-04-16T07:29:47.955Z,16.67
2019-04-16T07:35:00.435Z,13.07
2019-04-16T07:40:24.285Z,11.87
2019-04-16T07:45:42.929Z,10.17
2019-04-16T07:51:06.414Z,11.83
2019-04-16T07:56:22.766Z,12.47
2019-04-16T08:01:30.305Z,14.37
2019-04-16T08:06:34.853Z,18.23
2019-04-16T08:11:40.221Z,12.93
2019-04-16T08:16:47.460Z,18.40
2019-04-16T08:21:51.438Z,14.93
2019-04-16T08:26:55.974Z,14.67
2019-04-16T08:32:01.456Z,14.87
2019-04-16T08:37:08.032Z,16.93
2019-04-16T08:42:13.186Z,15.60
2019-04-16T08:47:17.759Z,14.97
2019-04-16T08:52:22.340Z,11.73
2019-04-16T08:57:31.813Z,19.03
2019-04-16T09:02:33.721Z,10.43
2019-04-16T09:07:41.563Z,14.23
2019-04-16T09:13:01.923Z,11.80
2019-04-16T09:18:02.881Z,12.00
2019-04-16T09:23:07.427Z,13.70
2019-04-16T09:28:34.146Z,11.97
2019-04-16T09:33:51.573Z,8.97
2019-04-16T09:39:20.423Z,10.80
2019-04-16T09:44:29.746Z,19.20
2019-04-16T09:49:34.424Z,11.53
2019-04-16T09:54:41.495Z,12.30
2019-04-16T09:59:57.361Z,14.50
2019-04-16T10:05:02.185Z,12.77
2019-04-16T10:10:08.021Z,10.23
2019-04-16T10:15:13.067Z,11.87
2019-04-16T10:20:19.439Z,9.33
2019-04-16T10:25:24.039Z,16.43
2019-04-16T10:30:34.069Z,11.37
2019-04-16T10:35:38.619Z,10.83
2019-04-16T10:40:47.531Z,15.30
2019-04-16T10:46:03.454Z,9.63
2019-04-16T10:51:20.775Z,10.60
2019-04-16T10:56:44.326Z,7.93
2019-04-16T11:02:10.623Z,9.50
2019-04-16T11:07:19.225Z,8.43
2019-04-16T11:12:23.979Z,12.13
2019-04-16T11:17:28.769Z,10.80
2019-04-16T11:22:34.111Z,8.10
2019-04-16T11:27:38.732Z,8.07
2019-04-16T11:32:44.274Z,9.60
2019-04-16T11:37:48.781Z,8.63
2019-04-16T11:42:53.955Z,9.53
2019-04-16T11:47:58.636Z,8.77
2019-04-16T11:53:04.804Z,7.27
2019-04-16T11:58:21.689Z,6.57
2019-04-16T12:03:45.961Z,8.10
2019-04-16T12:09:09.703Z,7.43
2019-04-16T12:14:42.015Z,6.80
2019-04-16T12:20:17.043Z,8.33
2019-04-16T12:25:34.544Z,7.33
2019-04-16T12:30:55.904Z,7.60
2019-04-16T12:36:14.085Z,9.30
2019-04-16T12:41:47.110Z,8.87
2019-04-16T12:47:13.783Z,7.90
2019-04-16T12:52:44.572Z,11.13
2019-04-16T12:58:07.408Z,7.27
2019-04-16T13:03:34.422Z,8.77
2019-04-16T13:09:07.230Z,6.47
2019-04-16T13:14:17.779Z,5.70
2019-04-16T13:19:40.465Z,8.60
2019-04-16T13:24:58.208Z,6.63
2019-04-16T13:30:03.190Z,8.17
2019-04-16T13:35:08.785Z,8.30
2019-04-16T13:40:14.636Z,6.30
2019-04-16T13:45:29.377Z,13.37
2019-04-16T13:50:47.861Z,7.17
2019-04-16T13:56:10.914Z,10.10
2019-04-16T14:01:19.369Z,8.63
2019-04-16T14:06:26.055Z,6.70
2019-04-16T14:11:30.745Z,5.83
2019-04-16T14:16:35.468Z,6.13
2019-04-16T14:21:41.158Z,8.23
2019-04-16T14:26:45.693Z,12.50
2019-04-16T14:31:51.081Z,8.60
2019-04-16T14:36:56.817Z,9.27
2019-04-16T14:42:02.076Z,8.37
2019-04-16T14:47:06.744Z,6.37
2019-04-16T14:52:11.556Z,8.80
2019-04-16T14:57:16.459Z,11.13
2019-04-16T15:02:29.590Z,9.73
2019-04-16T15:07:54.567Z,8.07
2019-04-16T15:13:29.264Z,10.10
2019-04-16T15:18:59.497Z,11.47
2019-04-16T15:24:27.643Z,10.70
2019-04-16T15:30:10.873Z,9.93
2019-04-16T15:35:24.609Z,12.27
2019-04-16T15:40:39.039Z,7.87
2019-04-16T15:46:26.020Z,10.93
2019-04-16T15:51:35.372Z,8.93
2019-04-16T15:57:00.463Z,12.00
2019-04-16T16:02:25.225Z,12.37
2019-04-16T16:07:35.489Z,10.73
2019-04-16T16:12:40.035Z,9.20
2019-04-16T16:17:44.577Z,10.80
2019-04-16T16:22:49.205Z,8.20
2019-04-16T16:27:54.170Z,10.20
2019-04-16T16:33:00.051Z,10.17
2019-04-16T16:38:04.637Z,10.47
2019-04-16T16:43:09.177Z,9.57
2019-04-16T16:48:13.801Z,14.10
2019-04-16T16:53:32.964Z,11.60
2019-04-16T16:58:44.361Z,14.53
2019-04-16T17:03:52.886Z,11.17
2019-04-16T17:08:57.737Z,10.83
2019-04-16T17:14:03.410Z,10.33
2019-04-16T17:19:11.325Z,15.37
2019-04-16T17:24:15.956Z,10.57
2019-04-16T17:29:20.492Z,8.60
2019-04-16T17:34:25.238Z,11.43
2019-04-16T17:39:43.376Z,13.30
2019-04-16T17:45:06.439Z,6.33
2019-04-16T17:50:26.581Z,8.90
2019-04-16T17:55:59.923Z,9.30
2019-04-16T18:01:18.977Z,7.20
2019-04-16T18:06:38.916Z,6.97
2019-04-16T18:12:05.669Z,12.17
2019-04-16T18:17:46.914Z,8.13
2019-04-16T18:23:04.834Z,4.90
2019-04-16T18:28:13.956Z,4.63
2019-04-16T18:33:38.258Z,7.53
2019-04-16T18:39:04.336Z,5.53
2019-04-16T18:44:29.321Z,4.60
2019-04-16T18:49:34.178Z,5.87
2019-04-16T18:54:38.874Z,5.93
2019-04-16T18:59:43.418Z,4.30
2019-04-16T19:04:50.901Z,3.40
2019-04-16T19:09:54.345Z,5.53
2019-04-16T19:14:58.885Z,3.53
2019-04-16T19:20:04.896Z,6.20
2019-04-16T19:25:10.068Z,5.23
2019-04-16T19:30:14.623Z,4.87
2019-04-16T19:35:22.351Z,7.53
2019-04-16T19:40:25.502Z,5.17
2019-04-16T19:45:30.088Z,5.07
2019-04-16T19:50:36.486Z,8.73
2019-04-16T19:55:45.606Z,5.07
2019-04-16T20:00:47.192Z,4.60
2019-04-16T20:05:51.831Z,3.63
2019-04-16T20:10:57.476Z,4.40
2019-04-16T20:16:03.066Z,7.67
2019-04-16T20:21:07.793Z,5.43
2019-04-16T20:26:12.832Z,4.83
2019-04-16T20:31:17.370Z,4.77
2019-04-16T20:36:23.500Z,6.70
2019-04-16T20:41:28.183Z,9.13
2019-04-16T20:46:32.840Z,5.67
2019-04-16T20:51:37.391Z,5.87
2019-04-16T20:56:42.016Z,4.77
2019-04-16T21:01:46.620Z,5.43
2019-04-16T21:06:51.471Z,5.97
2019-04-16T21:11:56.082Z,7.20
2019-04-16T21:17:06.000Z,5.40
2019-04-16T21:22:07.452Z,5.27
2019-04-16T21:27:13.333Z,8.37
2019-04-16T21:32:49.551Z,5.90
2019-04-16T21:38:07.302Z,6.33
2019-04-16T21:43:11.932Z,8.43
2019-04-16T21:48:17.838Z,6.30
2019-04-16T21:53:24.594Z,4.33
2019-04-16T21:58:30.245Z,6.67
2019-04-16T22:03:41.717Z,7.23
2019-04-16T22:08:42.603Z,7.97
2019-04-16T22:13:50.692Z,8.93
2019-04-16T22:18:54.725Z,8.87
2019-04-16T22:24:00.331Z,12.93
2019-04-16T22:29:04.868Z,5.77
2019-04-16T22:34:09.672Z,6.83
2019-04-16T22:39:33.365Z,7.63
2019-04-16T22:44:58.148Z,8.03
2019-04-16T22:50:15.188Z,5.50
2019-04-16T22:55:09.780Z,5.37
2019-04-16T23:00:44.404Z,5.37
2019-04-16T23:05:49.349Z,6.40
2019-04-16T23:10:53.890Z,5.50
2019-04-16T23:15:58.936Z,8.47
2019-04-16T23:21:08.834Z,7.00
2019-04-16T23:26:09.889Z,6.30
2019-04-16T23:31:14.516Z,7.20
2019-04-16T23:36:19.159Z,7.53
2019-04-16T23:41:23.764Z,6.97
2019-04-16T23:46:58.357Z,6.87
2019-04-16T23:52:08.501Z,4.60
2019-04-16T23:57:24.908Z,6.47
